createdAt,value
2022-08-12T00:02:04.338Z,3.25
2022-08-12T00:04:53.821Z,3.63
2022-08-12T00:07:38.938Z,3.22
2022-08-12T00:10:24.451Z,3.40
2022-08-12T00:15:56.212Z,2.88
2022-08-12T00:18:41.575Z,3.35
2022-08-12T00:24:13.424Z,3.05
2022-08-12T00:27:00.706Z,3.70
2022-08-12T00:29:48.192Z,2.70
2022-08-12T00:32:36.187Z,2.60
2022-08-12T00:35:26.751Z,2.58
2022-08-12T00:38:22.548Z,2.88
2022-08-12T00:41:07.945Z,3.08
2022-08-12T00:43:41.414Z,2.90
2022-08-12T00:46:26.245Z,3.00
2022-08-12T00:48:53.401Z,2.83
2022-08-12T00:51:20.095Z,3.40
2022-08-12T00:53:52.039Z,3.22
2022-08-12T00:56:21.004Z,3.05
2022-08-12T00:58:50.849Z,3.00
2022-08-12T01:01:18.326Z,3.13
2022-08-12T01:04:08.020Z,2.95
2022-08-12T01:06:54.266Z,2.97
2022-08-12T01:09:41.033Z,2.72
2022-08-12T01:12:10.219Z,3.05
2022-08-12T01:14:37.795Z,2.95
2022-08-12T01:17:04.979Z,3.08
2022-08-12T01:19:32.337Z,3.05
2022-08-12T01:22:20.606Z,3.03
2022-08-12T01:25:09.706Z,3.42
2022-08-12T01:27:40.485Z,3.30
2022-08-12T01:30:09.839Z,3.75
2022-08-12T01:32:40.398Z,3.42
2022-08-12T01:35:17.656Z,3.38
2022-08-12T01:37:54.813Z,3.90
2022-08-12T01:40:35.378Z,4.10
2022-08-12T01:43:10.411Z,4.15
2022-08-12T01:46:09.702Z,3.72
2022-08-12T01:48:47.666Z,3.60
2022-08-12T01:52:15.994Z,3.78
2022-08-12T01:54:22.910Z,4.00
2022-08-12T01:57:13.552Z,3.90
2022-08-12T01:59:59.312Z,4.00
2022-08-12T02:02:32.206Z,4.00
2022-08-12T02:05:36.009Z,4.13
2022-08-12T02:08:43.340Z,4.20
2022-08-12T02:11:29.418Z,3.95
2022-08-12T02:14:31.381Z,3.85
2022-08-12T02:17:00.911Z,3.60
2022-08-12T02:19:42.867Z,4.00
2022-08-12T02:22:29.108Z,3.80
2022-08-12T02:25:15.947Z,4.15
2022-08-12T02:27:51.954Z,4.40
2022-08-12T02:30:21.991Z,4.20
2022-08-12T02:32:51.115Z,4.35
2022-08-12T02:35:23.902Z,4.10
2022-08-12T02:37:57.317Z,4.07
2022-08-12T02:40:25.655Z,4.22
2022-08-12T02:43:16.687Z,3.90
2022-08-12T02:45:57.489Z,4.15
2022-08-12T02:48:30.270Z,3.72
2022-08-12T02:51:01.735Z,4.13
2022-08-12T02:53:34.078Z,3.95
2022-08-12T02:56:05.154Z,4.25
2022-08-12T02:58:33.711Z,4.20
2022-08-12T03:01:10.470Z,4.22
2022-08-12T03:03:40.216Z,4.20
2022-08-12T03:06:16.801Z,4.28
2022-08-12T03:08:49.150Z,4.20
2022-08-12T03:11:30.068Z,4.13
2022-08-12T03:14:02.389Z,4.13
2022-08-12T03:16:33.378Z,4.40
2022-08-12T03:19:00.516Z,4.55
2022-08-12T03:21:55.369Z,4.03
2022-08-12T03:24:18.505Z,5.55
2022-08-12T03:26:47.587Z,4.20
2022-08-12T03:29:16.460Z,4.45
2022-08-12T03:31:44.075Z,4.30
2022-08-12T03:34:14.512Z,4.45
2022-08-12T03:36:42.319Z,4.50
2022-08-12T03:39:17.921Z,4.15
2022-08-12T03:42:09.291Z,4.90
2022-08-12T03:45:04.621Z,4.93
2022-08-12T03:47:49.926Z,4.32
2022-08-12T03:50:36.049Z,4.57
2022-08-12T03:53:25.666Z,5.47
2022-08-12T03:56:11.699Z,5.47
2022-08-12T03:58:57.939Z,4.78
2022-08-12T04:01:26.826Z,4.95
2022-08-12T04:03:55.319Z,5.18
2022-08-12T04:06:34.828Z,4.82
2022-08-12T04:09:14.686Z,5.32
2022-08-12T04:12:03.765Z,4.95
2022-08-12T04:14:36.880Z,5.20
2022-08-12T04:17:04.234Z,4.60
2022-08-12T04:19:31.396Z,5.55
2022-08-12T04:22:01.967Z,4.63
2022-08-12T04:24:35.350Z,4.97
2022-08-12T04:27:05.583Z,5.00
2022-08-12T04:30:31.318Z,5.35
2022-08-12T04:32:19.107Z,5.18
2022-08-12T04:34:46.852Z,5.25
2022-08-12T04:37:13.400Z,5.80
2022-08-12T04:39:40.729Z,5.75
2022-08-12T04:42:07.355Z,5.35
2022-08-12T04:44:33.890Z,5.47
2022-08-12T04:47:00.640Z,5.80
2022-08-12T04:49:28.551Z,5.20
2022-08-12T04:51:59.504Z,5.63
2022-08-12T04:54:30.796Z,5.45
2022-08-12T04:57:03.709Z,5.60
2022-08-12T04:59:48.499Z,5.25
2022-08-12T05:02:26.372Z,5.20
2022-08-12T05:05:00.613Z,5.47
2022-08-12T05:07:28.143Z,6.03
2022-08-12T05:09:58.936Z,6.05
2022-08-12T05:12:34.207Z,5.72
2022-08-12T05:15:00.915Z,5.28
2022-08-12T05:17:28.320Z,5.60
2022-08-12T05:19:57.341Z,5.20
2022-08-12T05:22:26.391Z,5.32
2022-08-12T05:24:54.043Z,4.72
2022-08-12T05:27:22.780Z,5.00
2022-08-12T05:30:05.293Z,5.47
2022-08-12T05:32:36.579Z,4.80
2022-08-12T05:35:06.426Z,4.90
2022-08-12T05:37:34.749Z,5.30
2022-08-12T05:40:10.118Z,5.40
2022-08-12T05:42:37.884Z,5.07
2022-08-12T05:45:05.166Z,5.18
2022-08-12T05:47:44.912Z,5.97
2022-08-12T05:50:18.371Z,5.45
2022-08-12T05:52:44.881Z,5.60
2022-08-12T05:55:11.630Z,5.20
2022-08-12T05:57:38.524Z,5.63
2022-08-12T06:00:06.415Z,5.13
2022-08-12T06:02:38.187Z,5.68
2022-08-12T06:05:07.418Z,6.03
2022-08-12T06:07:59.145Z,5.38
2022-08-12T06:10:31.613Z,5.70
2022-08-12T06:13:05.276Z,6.00
2022-08-12T06:15:37.782Z,5.85
2022-08-12T06:18:14.144Z,5.80
2022-08-12T06:20:43.642Z,5.68
2022-08-12T06:23:12.001Z,6.65
2022-08-12T06:25:38.813Z,6.20
2022-08-12T06:28:17.685Z,4.88
2022-08-12T06:30:57.253Z,5.75
2022-08-12T06:33:57.713Z,5.88
2022-08-12T06:36:23.195Z,6.20
2022-08-12T06:38:50.647Z,6.85
2022-08-12T06:41:36.559Z,6.00
2022-08-12T06:44:09.021Z,6.10
2022-08-12T06:46:39.341Z,5.60
2022-08-12T06:49:07.012Z,5.93
2022-08-12T06:51:33.956Z,5.70
2022-08-12T06:54:01.820Z,6.35
2022-08-12T06:56:59.810Z,6.15
2022-08-12T06:59:15.756Z,5.90
2022-08-12T07:01:50.830Z,6.15
2022-08-12T07:04:37.226Z,5.20
2022-08-12T07:07:10.460Z,5.85
2022-08-12T07:10:04.089Z,5.57
2022-08-12T07:12:28.115Z,5.35
2022-08-12T07:14:59.127Z,5.68
2022-08-12T07:17:27.925Z,6.07
2022-08-12T07:19:58.004Z,5.68
2022-08-12T07:22:27.334Z,5.70
2022-08-12T07:25:14.099Z,5.60
2022-08-12T07:27:42.332Z,5.28
2022-08-12T07:30:09.915Z,5.20
2022-08-12T07:32:37.007Z,5.57
2022-08-12T07:35:05.219Z,5.40
2022-08-12T07:37:32.359Z,4.75
2022-08-12T07:40:00.335Z,4.50
2022-08-12T07:42:28.047Z,4.72
2022-08-12T07:44:56.420Z,4.10
2022-08-12T07:47:23.981Z,4.70
2022-08-12T07:50:04.695Z,4.50
2022-08-12T07:52:38.432Z,4.50
2022-08-12T07:55:06.461Z,4.10
2022-08-12T07:57:33.271Z,4.05
2022-08-12T08:00:05.834Z,3.72
2022-08-12T08:02:35.780Z,3.70
2022-08-12T08:05:03.565Z,4.07
2022-08-12T08:07:30.825Z,3.83
2022-08-12T08:09:59.785Z,3.50
2022-08-12T08:12:46.084Z,3.70
2022-08-12T08:15:15.012Z,3.20
2022-08-12T08:17:57.688Z,3.15
2022-08-12T08:20:28.488Z,3.78
2022-08-12T08:23:01.373Z,3.20
2022-08-12T08:25:36.181Z,3.70
2022-08-12T08:28:10.590Z,3.17
2022-08-12T08:30:43.797Z,3.40
2022-08-12T08:33:23.484Z,3.00
2022-08-12T08:36:03.085Z,3.13
2022-08-12T08:38:33.218Z,3.50
2022-08-12T08:42:15.751Z,2.67
2022-08-12T08:44:11.359Z,2.78
2022-08-12T08:46:43.564Z,3.15
2022-08-12T08:49:11.203Z,2.92
2022-08-12T08:51:39.012Z,2.58
2022-08-12T08:54:12.147Z,2.58
2022-08-12T08:56:50.040Z,2.60
2022-08-12T08:59:19.479Z,3.35
2022-08-12T09:01:47.409Z,2.85
2022-08-12T09:05:13.645Z,2.75
2022-08-12T09:07:17.420Z,2.97
2022-08-12T09:12:56.407Z,2.50
2022-08-12T09:15:35.615Z,3.03
2022-08-12T09:18:08.950Z,2.40
2022-08-12T09:20:38.550Z,3.45
2022-08-12T09:23:58.836Z,3.00
2022-08-12T09:25:57.785Z,2.60
2022-08-12T09:28:31.281Z,2.33
2022-08-12T09:31:00.108Z,2.40
2022-08-12T09:34:29.258Z,2.63
2022-08-12T09:36:30.697Z,2.30
2022-08-12T09:38:58.955Z,2.20
2022-08-12T09:42:32.892Z,2.58
2022-08-12T09:44:39.290Z,2.15
2022-08-12T09:47:10.424Z,2.33
2022-08-12T09:49:42.221Z,2.55
2022-08-12T09:52:11.569Z,2.20
2022-08-12T09:54:42.690Z,2.40
2022-08-12T09:58:08.071Z,2.25
2022-08-12T10:00:12.618Z,2.70
2022-08-12T10:03:05.630Z,2.10
2022-08-12T10:06:20.089Z,2.40
2022-08-12T10:08:24.470Z,2.58
2022-08-12T10:11:18.482Z,2.50
2022-08-12T10:13:49.963Z,2.30
2022-08-12T10:16:38.607Z,2.40
2022-08-12T10:19:05.964Z,2.05
2022-08-12T10:21:44.992Z,2.83
2022-08-12T10:24:15.663Z,2.50
2022-08-12T10:27:06.307Z,2.50
2022-08-12T10:30:36.971Z,2.22
2022-08-12T10:32:44.944Z,2.20
2022-08-12T10:35:25.772Z,2.17
2022-08-12T10:38:34.890Z,2.03
2022-08-12T10:41:03.946Z,2.58
2022-08-12T10:43:54.471Z,2.20
2022-08-12T10:46:24.028Z,2.22
2022-08-12T10:49:05.269Z,2.53
2022-08-12T10:54:19.845Z,2.05
2022-08-12T10:56:54.846Z,2.30
2022-08-12T10:59:58.528Z,2.50
2022-08-12T11:04:19.069Z,2.55
2022-08-12T11:07:03.467Z,2.20
2022-08-12T11:08:35.973Z,2.00
2022-08-12T11:10:37.375Z,2.20
2022-08-12T11:13:09.450Z,2.10
2022-08-12T11:16:19.544Z,2.08
2022-08-12T11:18:25.287Z,2.20
2022-08-12T11:20:54.260Z,2.20
2022-08-12T11:23:36.829Z,2.42
2022-08-12T11:26:06.797Z,2.25
2022-08-12T11:28:36.881Z,2.42
2022-08-12T11:31:06.492Z,2.10
2022-08-12T11:34:04.763Z,2.10
2022-08-12T11:36:24.190Z,2.20
2022-08-12T11:38:52.809Z,2.25
2022-08-12T11:41:28.031Z,2.40
2022-08-12T11:44:29.093Z,2.25
2022-08-12T11:46:58.105Z,3.05
2022-08-12T11:49:26.923Z,2.25
2022-08-12T11:51:58.941Z,2.22
2022-08-12T11:54:25.639Z,2.00
2022-08-12T11:56:59.375Z,2.25
2022-08-12T12:02:16.416Z,2.47
2022-08-12T12:04:45.557Z,2.42
2022-08-12T12:07:18.938Z,2.70
2022-08-12T12:09:53.361Z,2.67
2022-08-12T12:12:25.092Z,2.10
2022-08-12T12:14:54.937Z,2.53
2022-08-12T12:17:26.158Z,2.60
2022-08-12T12:19:53.973Z,2.38
2022-08-12T12:22:23.525Z,2.40
2022-08-12T12:24:54.200Z,2.20
2022-08-12T12:27:40.177Z,2.40
2022-08-12T12:30:18.173Z,2.05
2022-08-12T12:33:17.724Z,2.40
2022-08-12T12:35:44.729Z,3.97
2022-08-12T12:38:31.308Z,3.63
2022-08-12T12:41:16.983Z,2.10
2022-08-12T12:44:04.111Z,2.35
2022-08-12T12:46:31.104Z,2.10
2022-08-12T12:48:58.105Z,1.75
2022-08-12T12:52:06.739Z,1.98
2022-08-12T12:54:11.257Z,2.10
2022-08-12T12:56:40.428Z,1.92
2022-08-12T12:59:54.776Z,3.10
2022-08-12T13:01:55.130Z,1.70
2022-08-12T13:04:22.507Z,1.90
2022-08-12T13:06:52.705Z,2.00
2022-08-12T13:09:22.278Z,1.55
2022-08-12T13:11:53.173Z,1.60
2022-08-12T13:14:28.659Z,3.03
2022-08-12T13:17:02.824Z,2.38
2022-08-12T13:19:37.272Z,3.47
2022-08-12T13:22:18.835Z,1.75
2022-08-12T13:25:11.898Z,1.92
2022-08-12T13:27:46.212Z,1.70
2022-08-12T13:30:23.871Z,2.45
2022-08-12T13:32:59.238Z,2.20
2022-08-12T13:36:05.987Z,1.92
2022-08-12T13:38:26.554Z,1.80
2022-08-12T13:41:01.401Z,2.13
2022-08-12T13:43:41.379Z,2.00
2022-08-12T13:46:12.299Z,1.77
2022-08-12T13:48:45.038Z,1.90
2022-08-12T13:51:13.440Z,2.13
2022-08-12T13:53:59.130Z,2.03
2022-08-12T13:56:31.538Z,1.65
2022-08-12T13:59:08.096Z,1.80
2022-08-12T14:01:40.405Z,1.80
2022-08-12T14:04:12.512Z,1.73
2022-08-12T14:06:40.668Z,1.92
2022-08-12T14:09:17.935Z,1.70
2022-08-12T14:11:58.889Z,1.73
2022-08-12T14:14:31.525Z,1.67
2022-08-12T14:17:08.170Z,1.80
2022-08-12T14:19:48.590Z,1.90
2022-08-12T14:22:20.234Z,1.67
2022-08-12T14:24:47.388Z,1.70
2022-08-12T14:27:13.932Z,1.98
2022-08-12T14:30:15.067Z,1.52
2022-08-12T14:32:42.897Z,1.60
2022-08-12T14:35:12.060Z,1.33
2022-08-12T14:37:55.899Z,1.42
2022-08-12T14:40:27.802Z,1.73
2022-08-12T14:43:14.749Z,1.98
2022-08-12T14:45:49.040Z,1.67
2022-08-12T14:48:19.194Z,1.67
2022-08-12T14:51:03.050Z,1.80
2022-08-12T14:59:56.665Z,1.95
2022-08-12T15:02:20.715Z,2.38
2022-08-12T15:05:03.424Z,2.60
2022-08-12T15:07:34.051Z,2.55
2022-08-12T15:10:10.950Z,2.95
2022-08-12T15:12:40.597Z,3.28
2022-08-12T15:15:08.738Z,3.92
2022-08-12T15:17:38.536Z,3.50
2022-08-12T15:20:12.169Z,3.30
2022-08-12T15:23:01.351Z,2.90
2022-08-12T15:25:28.728Z,2.40
2022-08-12T15:28:04.066Z,1.75
2022-08-12T15:30:33.809Z,1.75
2022-08-12T15:33:12.825Z,1.80
2022-08-12T15:35:50.167Z,1.90
2022-08-12T15:38:21.152Z,1.92
2022-08-12T15:40:49.850Z,2.10
2022-08-12T15:44:16.458Z,2.20
2022-08-12T15:46:15.896Z,2.00
2022-08-12T15:48:47.028Z,2.22
2022-08-12T15:51:58.480Z,1.80
2022-08-12T15:54:33.612Z,2.58
2022-08-12T15:57:08.110Z,1.83
2022-08-12T16:00:00.251Z,1.77
2022-08-12T16:02:27.141Z,1.55
2022-08-12T16:04:57.910Z,1.80
2022-08-12T16:07:25.928Z,1.70
2022-08-12T16:10:05.605Z,1.60
2022-08-12T16:12:39.506Z,1.48
2022-08-12T16:15:08.464Z,1.90
2022-08-12T16:18:09.056Z,1.58
2022-08-12T16:20:27.834Z,1.60
2022-08-12T16:23:26.877Z,1.55
2022-08-12T16:26:05.501Z,1.58
2022-08-12T16:28:33.591Z,1.60
2022-08-12T16:31:01.995Z,1.50
2022-08-12T16:33:58.678Z,1.60
2022-08-12T16:36:25.591Z,1.63
2022-08-12T16:38:52.376Z,1.80
2022-08-12T16:41:18.885Z,1.73
2022-08-12T16:43:47.339Z,1.80
2022-08-12T16:46:23.906Z,1.52
2022-08-12T16:48:59.733Z,1.67
2022-08-12T16:51:40.395Z,1.52
2022-08-12T16:54:14.057Z,1.73
2022-08-12T16:56:54.527Z,1.52
2022-08-12T16:59:23.974Z,1.83
2022-08-12T17:01:50.795Z,1.17
2022-08-12T17:04:18.822Z,1.40
2022-08-12T17:06:47.863Z,1.50
2022-08-12T17:09:17.303Z,1.58
2022-08-12T17:11:45.208Z,1.58
2022-08-12T17:14:20.496Z,1.33
2022-08-12T17:16:51.840Z,1.40
2022-08-12T17:19:19.867Z,1.77
2022-08-12T17:22:02.752Z,1.70
2022-08-12T17:24:32.732Z,1.42
2022-08-12T17:27:09.569Z,1.27
2022-08-12T17:30:01.578Z,1.60
2022-08-12T17:32:31.209Z,1.23
2022-08-12T17:35:18.457Z,1.23
2022-08-12T17:37:48.354Z,1.23
2022-08-12T17:40:34.698Z,1.60
2022-08-12T17:43:56.371Z,1.48
2022-08-12T17:48:35.152Z,1.00
2022-08-12T17:51:15.123Z,1.30
2022-08-12T17:54:11.416Z,1.65
2022-08-12T17:56:37.208Z,1.40
2022-08-12T17:59:04.024Z,1.30
2022-08-12T18:01:35.893Z,1.40
2022-08-12T18:04:21.756Z,1.30
2022-08-12T18:06:52.951Z,1.40
2022-08-12T18:09:21.785Z,1.10
2022-08-12T18:12:11.169Z,1.30
2022-08-12T18:14:41.563Z,1.50
2022-08-12T18:17:16.188Z,1.48
2022-08-12T18:20:05.809Z,1.40
2022-08-12T18:22:33.121Z,1.42
2022-08-12T18:25:05.036Z,1.17
2022-08-12T18:27:46.704Z,1.40
2022-08-12T18:30:20.467Z,2.00
2022-08-12T18:33:03.758Z,1.48
2022-08-12T18:35:46.891Z,1.40
2022-08-12T18:38:17.988Z,1.40
2022-08-12T18:41:07.083Z,1.35
2022-08-12T18:43:58.457Z,1.50
2022-08-12T18:46:48.909Z,1.60
2022-08-12T18:49:37.964Z,1.50
2022-08-12T18:52:07.769Z,1.48
2022-08-12T18:54:49.083Z,1.30
2022-08-12T18:57:45.931Z,1.33
2022-08-12T19:00:18.796Z,1.90
2022-08-12T19:02:53.445Z,1.42
2022-08-12T19:05:54.515Z,1.52
2022-08-12T19:08:26.411Z,1.85
2022-08-12T19:10:54.367Z,1.65
2022-08-12T19:13:43.587Z,1.65
2022-08-12T19:16:10.893Z,1.83
2022-08-12T19:18:44.562Z,2.00
2022-08-12T19:21:16.366Z,2.22
2022-08-12T19:23:44.407Z,2.10
2022-08-12T19:26:12.427Z,2.35
2022-08-12T19:28:39.753Z,2.60
2022-08-12T19:31:56.747Z,2.67
2022-08-12T19:34:56.302Z,2.38
2022-08-12T19:37:20.387Z,2.45
2022-08-12T19:40:10.160Z,2.72
2022-08-12T19:42:42.718Z,2.67
2022-08-12T19:45:15.790Z,2.70
2022-08-12T19:47:44.634Z,2.80
2022-08-12T19:50:11.871Z,2.70
2022-08-12T19:52:39.001Z,2.75
2022-08-12T19:55:11.573Z,2.45
2022-08-12T19:58:03.337Z,4.07
2022-08-12T20:00:34.441Z,2.40
2022-08-12T20:03:05.428Z,2.47
2022-08-12T20:06:05.124Z,2.75
2022-08-12T20:08:31.678Z,2.45
2022-08-12T20:12:13.202Z,2.38
2022-08-12T20:14:00.972Z,2.50
2022-08-12T20:16:57.306Z,2.25
2022-08-12T20:19:52.236Z,2.13
2022-08-12T20:22:23.392Z,2.10
2022-08-12T20:24:55.337Z,2.10
2022-08-12T20:27:29.237Z,2.10
2022-08-12T20:30:13.768Z,2.40
2022-08-12T20:33:32.181Z,2.50
2022-08-12T20:36:13.261Z,1.85
2022-08-12T20:38:46.719Z,1.90
2022-08-12T20:41:17.715Z,2.15
2022-08-12T20:43:49.663Z,2.17
2022-08-12T20:46:21.088Z,2.63
2022-08-12T20:48:54.993Z,2.13
2022-08-12T20:51:24.485Z,2.25
2022-08-12T20:53:59.431Z,2.30
2022-08-12T20:56:30.318Z,2.45
2022-08-12T20:59:00.874Z,2.50
2022-08-12T21:01:29.265Z,2.53
2022-08-12T21:04:33.226Z,2.88
2022-08-12T21:07:09.411Z,3.10
2022-08-12T21:09:40.658Z,3.00
2022-08-12T21:12:31.733Z,3.05
2022-08-12T21:15:18.035Z,2.60
2022-08-12T21:18:09.057Z,2.50
2022-08-12T21:20:34.416Z,2.30
2022-08-12T21:23:06.464Z,2.45
2022-08-12T21:25:36.357Z,2.50
2022-08-12T21:28:11.662Z,2.85
2022-08-12T21:30:43.354Z,2.33
2022-08-12T21:34:06.671Z,2.30
2022-08-12T21:36:34.881Z,2.72
2022-08-12T21:39:20.818Z,2.35
2022-08-12T21:41:52.968Z,2.42
2022-08-12T21:45:44.397Z,2.38
2022-08-12T21:47:21.179Z,2.25
2022-08-12T21:49:55.745Z,2.10
2022-08-12T21:52:34.778Z,2.08
2022-08-12T21:55:08.554Z,2.17
2022-08-12T21:57:53.502Z,2.15
2022-08-12T22:00:33.316Z,2.00
2022-08-12T22:04:01.410Z,2.33
2022-08-12T22:06:30.871Z,1.92
2022-08-12T22:09:15.976Z,1.80
2022-08-12T22:11:56.177Z,2.20
2022-08-12T22:14:26.171Z,2.08
2022-08-12T22:16:55.851Z,2.03
2022-08-12T22:19:23.361Z,2.30
2022-08-12T22:21:53.463Z,1.80
2022-08-12T22:24:26.584Z,1.92
2022-08-12T22:27:17.838Z,2.15
2022-08-12T22:32:50.202Z,2.13
2022-08-12T22:35:56.365Z,1.98
2022-08-12T22:38:24.002Z,2.30
2022-08-12T22:40:54.292Z,2.00
2022-08-12T22:43:58.580Z,2.30
2022-08-12T22:46:52.748Z,2.25
2022-08-12T22:49:37.112Z,1.98
2022-08-12T22:52:18.228Z,2.22
2022-08-12T22:55:02.276Z,1.75
2022-08-12T22:57:54.356Z,2.17
2022-08-12T23:00:24.555Z,2.00
2022-08-12T23:03:48.150Z,2.20
2022-08-12T23:06:10.228Z,2.40
2022-08-12T23:08:38.563Z,2.35
2022-08-12T23:11:06.406Z,2.63
2022-08-12T23:13:55.325Z,2.05
2022-08-12T23:16:31.687Z,2.50
2022-08-12T23:19:23.238Z,2.50
2022-08-12T23:22:06.602Z,2.60
2022-08-12T23:24:55.611Z,2.50
2022-08-12T23:27:50.254Z,2.67
2022-08-12T23:30:24.725Z,2.35
2022-08-12T23:33:13.210Z,2.42
2022-08-12T23:35:58.869Z,2.28
2022-08-12T23:38:32.321Z,2.22
2022-08-12T23:41:05.647Z,2.17
2022-08-12T23:43:39.260Z,2.15
2022-08-12T23:46:09.221Z,2.30
2022-08-12T23:48:37.357Z,2.67
2022-08-12T23:51:22.727Z,2.42
2022-08-12T23:54:02.859Z,2.15
2022-08-12T23:56:33.131Z,2.53
2022-08-12T23:59:08.845Z,2.40
